GLD1793 HUKJ-HUJI

Flight info

Callsign GLD1793
Flight time 0h 16m
Altitude 7000
Route DCT
Aircraft BE58/M-SDFGIRY/S

Departure

Time 2026-05-09 12:00
Airport Kajjansi Airfield (HUKJ)

Arrival

Time 2026-05-09 12:16
Airport Jinja Airport (HUJI)
Time Latitude Longitude Altitude Speed Heading
2026-05-09 11:52 0.19890 32.55066 3750 ft 0 kts 322°
2026-05-09 11:57 0.19891 32.55065 3751 ft 0 kts 327°
2026-05-09 11:57 0.19900 32.55072 3750 ft 6 kts 80°
2026-05-09 11:57 0.19864 32.55136 3751 ft 15 kts 133°
2026-05-09 11:58 0.19767 32.55219 3753 ft 20 kts 144°
2026-05-09 11:58 0.19652 32.55316 3752 ft 22 kts 143°
2026-05-09 11:58 0.19547 32.55396 3750 ft 16 kts 142°
2026-05-09 11:58 0.19500 32.55444 3751 ft 7 kts 346°
2026-05-09 11:59 0.19585 32.55368 3751 ft 46 kts 319°
2026-05-09 11:59 0.20000 32.55023 3756 ft 104 kts 318°
2026-05-09 11:59 0.20594 32.54519 3973 ft 117 kts 317°
2026-05-09 11:59 0.21241 32.53996 4246 ft 130 kts 322°
2026-05-09 12:00 0.22018 32.53394 4399 ft 150 kts 312°
2026-05-09 12:00 0.22519 32.52446 4566 ft 163 kts 287°
2026-05-09 12:00 0.22925 32.51314 4576 ft 183 kts 288°
2026-05-09 12:00 0.23362 32.50074 4581 ft 193 kts 287°
2026-05-09 12:01 0.23859 32.48824 4576 ft 201 kts 300°
2026-05-09 12:01 0.24955 32.47935 4658 ft 203 kts 340°
2026-05-09 12:01 0.26301 32.47685 4927 ft 196 kts 353°
2026-05-09 12:01 0.27633 32.47512 5183 ft 190 kts 353°
2026-05-09 12:02 0.28934 32.47346 5442 ft 188 kts 353°
2026-05-09 12:02 0.30223 32.47330 5690 ft 184 kts 17°
2026-05-09 12:02 0.31366 32.47869 5952 ft 180 kts 35°
2026-05-09 12:02 0.32067 32.48852 6219 ft 176 kts 78°
2026-05-09 12:03 0.32118 32.50067 6489 ft 175 kts 88°
2026-05-09 12:03 0.32334 32.51258 6740 ft 175 kts 74°
2026-05-09 12:03 0.32685 32.52423 6970 ft 177 kts 73°
2026-05-09 12:03 0.33060 32.53649 6986 ft 190 kts 73°
2026-05-09 12:04 0.33452 32.54946 6991 ft 199 kts 73°
2026-05-09 12:04 0.33856 32.56289 6989 ft 204 kts 73°
2026-05-09 12:04 0.34264 32.57641 6986 ft 207 kts 73°
2026-05-09 12:04 0.34682 32.59027 6987 ft 209 kts 73°
2026-05-09 12:05 0.35103 32.60424 6985 ft 210 kts 73°
2026-05-09 12:05 0.35526 32.61825 6984 ft 211 kts 73°
2026-05-09 12:05 0.35948 32.63225 6972 ft 212 kts 73°
2026-05-09 12:05 0.36373 32.64635 6973 ft 212 kts 73°
2026-05-09 12:06 0.36799 32.66047 6974 ft 212 kts 73°
2026-05-09 12:06 0.37224 32.67457 6972 ft 212 kts 73°
2026-05-09 12:06 0.37650 32.68870 6973 ft 212 kts 73°
2026-05-09 12:06 0.38076 32.70282 6973 ft 212 kts 73°
2026-05-09 12:07 0.38502 32.71693 6973 ft 212 kts 73°
2026-05-09 12:07 0.38927 32.73104 6957 ft 212 kts 73°
2026-05-09 12:07 0.39354 32.74521 6923 ft 214 kts 73°
2026-05-09 12:07 0.39778 32.75926 6917 ft 213 kts 73°
2026-05-09 12:08 0.40206 32.77345 6918 ft 213 kts 73°
2026-05-09 12:08 0.40634 32.78765 6918 ft 213 kts 73°
2026-05-09 12:08 0.41061 32.80181 6917 ft 212 kts 73°
2026-05-09 12:08 0.41485 32.81586 6917 ft 212 kts 73°
2026-05-09 12:09 0.41913 32.83005 6916 ft 212 kts 73°
2026-05-09 12:09 0.42339 32.84419 6897 ft 212 kts 73°
2026-05-09 12:09 0.42760 32.85815 6897 ft 212 kts 73°
2026-05-09 12:10 0.44037 32.90050 6897 ft 212 kts 73°
2026-05-09 12:10 0.44463 32.91463 6897 ft 212 kts 73°
2026-05-09 12:10 0.44891 32.92880 6897 ft 212 kts 73°
2026-05-09 12:11 0.45316 32.94291 6897 ft 212 kts 73°
2026-05-09 12:11 0.45743 32.95707 6875 ft 212 kts 73°
2026-05-09 12:11 0.46169 32.97120 6875 ft 212 kts 73°
2026-05-09 12:11 0.46595 32.98531 6876 ft 212 kts 73°
2026-05-09 12:12 0.47015 32.99925 6876 ft 212 kts 73°
2026-05-09 12:12 0.47441 33.01339 6875 ft 212 kts 73°
2026-05-09 12:12 0.47868 33.02753 6875 ft 212 kts 73°
2026-05-09 12:12 0.48298 33.04181 6790 ft 216 kts 73°
2026-05-09 12:13 0.48730 33.05617 6535 ft 213 kts 73°
2026-05-09 12:13 0.49143 33.06987 6276 ft 194 kts 73°
2026-05-09 12:13 0.49521 33.08233 6031 ft 183 kts 73°
2026-05-09 12:13 0.49887 33.09445 5793 ft 182 kts 74°
2026-05-09 12:14 0.50247 33.10645 5562 ft 183 kts 75°
2026-05-09 12:14 0.50351 33.11893 5323 ft 181 kts 99°
2026-05-09 12:14 0.49939 33.13061 5086 ft 178 kts 123°
2026-05-09 12:14 0.49206 33.14055 4851 ft 178 kts 128°
2026-05-09 12:15 0.48478 33.15038 4621 ft 169 kts 128°
2026-05-09 12:15 0.47817 33.15930 4519 ft 146 kts 129°
2026-05-09 12:15 0.47259 33.16692 4365 ft 132 kts 128°
2026-05-09 12:15 0.46744 33.17421 4165 ft 123 kts 128°
2026-05-09 12:16 0.46252 33.18103 4005 ft 119 kts 131°
2026-05-09 12:16 0.45793 33.18680 3872 ft 96 kts 132°
2026-05-09 12:16 0.45447 33.19116 3871 ft 66 kts 128°
2026-05-09 12:16 0.45300 33.19236 3872 ft 3 kts 295°
2026-05-09 12:17 0.45302 33.19232 3872 ft 0 kts 297°